Time;durP1;ratioP1;P1;durP2;ratioP2;P2;SDS_P1;SDS_P2;PMS_P1;PMS_P2;Temp;Humidity;BMP_temperature;BMP_pressure;BME280_temperature;BME280_humidity;BME280_pressure;Samples;Min_cycle;Max_cycle;Signal;HPM_P1;HPM_P2
2021/10/03 00:00:49;;;;;;;29.77;25.00;;;13.50;99.90;;;;;;6274324;28;20481;-63
2021/10/03 00:03:54;;;;;;;30.73;25.50;;;13.60;99.90;;;;;;6274499;28;20480;-63
2021/10/03 00:06:57;;;;;;;29.53;25.03;;;13.50;99.90;;;;;;6274860;28;20474;-63
2021/10/03 00:10:00;;;;;;;30.87;24.07;;;13.50;99.90;;;;;;6274943;28;20850;-63
2021/10/03 00:13:05;;;;;;;28.90;24.07;;;13.50;99.90;;;;;;6274566;28;20488;-63
2021/10/03 00:16:09;;;;;;;27.00;22.80;;;13.50;99.90;;;;;;6274827;28;20462;-63
2021/10/03 00:19:12;;;;;;;26.93;23.70;;;13.50;99.90;;;;;;6274593;28;20477;-63
2021/10/03 00:22:15;;;;;;;31.80;25.60;;;13.50;99.90;;;;;;6274415;28;20470;-63
2021/10/03 00:25:20;;;;;;;30.83;25.20;;;13.40;99.90;;;;;;6275276;28;20818;-63
2021/10/03 00:28:24;;;;;;;30.73;23.77;;;13.40;99.90;;;;;;6278683;28;20489;-63
2021/10/03 00:31:28;;;;;;;29.23;23.07;;;13.40;99.90;;;;;;6278383;28;21023;-63
2021/10/03 00:34:31;;;;;;;31.20;24.60;;;13.30;99.90;;;;;;6278390;28;20474;-63
2021/10/03 00:37:34;;;;;;;31.83;26.43;;;13.30;99.90;;;;;;6278652;28;20474;-63
2021/10/03 00:40:39;;;;;;;27.33;24.43;;;13.20;99.90;;;;;;6278152;28;20539;-63
2021/10/03 00:43:44;;;;;;;28.47;23.40;;;13.20;99.90;;;;;;6277763;28;20949;-63
2021/10/03 00:46:47;;;;;;;28.27;23.50;;;13.20;99.90;;;;;;6278351;28;20465;-63
2021/10/03 00:49:50;;;;;;;31.43;23.77;;;13.20;99.90;;;;;;6277807;28;20481;-63
2021/10/03 00:52:54;;;;;;;30.27;23.53;;;13.20;99.90;;;;;;6277531;28;20478;-63
2021/10/03 00:55:57;;;;;;;26.50;22.60;;;13.20;99.90;;;;;;6277628;28;20477;-63
2021/10/03 00:59:02;;;;;;;27.33;22.87;;;13.10;99.90;;;;;;6278123;28;20470;-63
2021/10/03 01:02:05;;;;;;;26.27;23.47;;;13.10;99.90;;;;;;6277637;28;20486;-64
2021/10/03 01:05:09;;;;;;;32.60;23.90;;;13.10;99.90;;;;;;6277411;28;20466;-63
2021/10/03 01:08:13;;;;;;;29.90;23.43;;;13.10;99.90;;;;;;6277179;28;20767;-63
2021/10/03 01:11:16;;;;;;;30.77;24.70;;;13.00;99.90;;;;;;6277273;28;20478;-64
2021/10/03 01:14:21;;;;;;;32.73;25.50;;;13.00;99.90;;;;;;6277145;28;21035;-63
2021/10/03 01:17:24;;;;;;;29.63;24.37;;;12.90;99.90;;;;;;6277472;28;20485;-63
2021/10/03 01:20:29;;;;;;;28.87;24.33;;;12.90;99.90;;;;;;6277223;28;20478;-63
2021/10/03 01:23:34;;;;;;;26.63;22.20;;;12.90;99.90;;;;;;6277338;28;20466;-63
2021/10/03 01:26:37;;;;;;;32.33;24.13;;;12.90;99.90;;;;;;6277514;28;20961;-63
2021/10/03 01:29:42;;;;;;;32.30;24.70;;;12.90;99.90;;;;;;6277033;28;20976;-63
2021/10/03 01:32:45;;;;;;;30.50;24.43;;;12.90;99.90;;;;;;6277265;28;20831;-63
2021/10/03 01:35:49;;;;;;;28.90;23.90;;;12.90;99.90;;;;;;6276839;28;20477;-62
2021/10/03 01:38:55;;;;;;;29.43;24.07;;;12.80;99.90;;;;;;6276875;28;20481;-62
2021/10/03 01:41:58;;;;;;;30.90;25.70;;;12.70;99.90;;;;;;6276977;28;20485;-62
2021/10/03 01:45:01;;;;;;;30.80;25.87;;;12.70;99.90;;;;;;6276788;28;20462;-63
2021/10/03 01:48:11;;;;;;;31.00;24.30;;;12.70;99.90;;;;;;6277116;28;20965;-63
2021/10/03 01:51:16;;;;;;;32.10;25.60;;;12.70;99.90;;;;;;6276365;28;20815;-62
2021/10/03 01:54:21;;;;;;;32.63;25.40;;;12.60;99.90;;;;;;6276621;28;20793;-62
2021/10/03 01:57:25;;;;;;;29.43;23.57;;;12.60;99.90;;;;;;6277265;28;20446;-62
2021/10/03 02:00:29;;;;;;;30.27;24.60;;;12.70;99.90;;;;;;6276130;28;20462;-62
2021/10/03 02:03:32;;;;;;;27.50;22.67;;;12.60;99.90;;;;;;6277061;28;20961;-62
2021/10/03 02:06:43;;;;;;;30.03;24.63;;;12.50;99.90;;;;;;6277194;28;20454;-62
2021/10/03 02:09:47;;;;;;;29.73;23.93;;;12.50;99.90;;;;;;6276370;28;20461;-62
2021/10/03 02:12:50;;;;;;;30.13;23.70;;;12.40;99.90;;;;;;6276373;28;20483;-62
2021/10/03 02:15:54;;;;;;;29.23;24.50;;;12.40;99.90;;;;;;6276533;28;20477;-63
2021/10/03 02:18:57;;;;;;;27.47;22.97;;;12.30;99.90;;;;;;6275770;28;20547;-63
2021/10/03 02:22:01;;;;;;;29.13;25.30;;;12.30;99.90;;;;;;6276017;28;20477;-63
2021/10/03 02:25:06;;;;;;;33.23;24.20;;;12.20;99.90;;;;;;6275747;28;20473;-63
2021/10/03 02:28:10;;;;;;;28.57;24.17;;;12.20;99.90;;;;;;6276054;28;20470;-63
2021/10/03 02:31:13;;;;;;;31.30;25.80;;;12.20;99.90;;;;;;6276139;28;20466;-63
2021/10/03 02:34:16;;;;;;;29.03;23.07;;;12.10;99.90;;;;;;6275869;28;20796;-63
2021/10/03 02:37:20;;;;;;;27.80;22.83;;;12.10;99.90;;;;;;6275945;28;20474;-63
2021/10/03 02:40:24;;;;;;;30.97;24.53;;;12.10;99.90;;;;;;6275467;28;20489;-63
2021/10/03 02:43:31;;;;;;;29.47;23.53;;;12.00;99.90;;;;;;6271093;28;20818;-63
2021/10/03 02:46:34;;;;;;;30.43;23.17;;;12.00;99.90;;;;;;6275536;28;20481;-63
2021/10/03 02:49:38;;;;;;;30.53;24.80;;;12.00;99.90;;;;;;6275510;28;20523;-63
2021/10/03 02:52:42;;;;;;;31.13;26.53;;;11.90;99.90;;;;;;6275462;28;20557;-63
2021/10/03 02:55:46;;;;;;;34.03;26.10;;;11.90;99.90;;;;;;6275355;28;20481;-63
2021/10/03 02:58:50;;;;;;;31.23;24.07;;;11.80;99.90;;;;;;6275300;28;20482;-63
2021/10/03 03:01:53;;;;;;;31.10;24.43;;;11.90;99.90;;;;;;6275518;28;20954;-62
2021/10/03 03:04:56;;;;;;;30.50;24.07;;;11.90;99.90;;;;;;6274984;28;20470;-62
2021/10/03 03:07:59;;;;;;;27.30;22.70;;;11.90;99.90;;;;;;6275176;28;20868;-63
2021/10/03 03:11:04;;;;;;;31.10;25.07;;;11.80;99.90;;;;;;6275265;28;20481;-63
2021/10/03 03:14:09;;;;;;;34.23;25.80;;;11.90;99.90;;;;;;6275188;28;20469;-63
2021/10/03 03:17:17;;;;;;;31.97;22.70;;;11.90;99.90;;;;;;6274990;28;20493;-63
2021/10/03 03:20:20;;;;;;;30.10;23.03;;;11.90;99.90;;;;;;6275436;28;20478;-63
2021/10/03 03:23:23;;;;;;;30.13;24.30;;;11.90;99.90;;;;;;6274985;28;20474;-63
2021/10/03 03:26:28;;;;;;;32.20;23.80;;;11.90;99.90;;;;;;6275011;28;20477;-63
2021/10/03 03:29:31;;;;;;;33.13;24.90;;;12.00;99.90;;;;;;6274783;28;20977;-63
2021/10/03 03:32:35;;;;;;;31.40;23.83;;;11.90;99.90;;;;;;6274826;28;20474;-63
2021/10/03 03:35:38;;;;;;;27.00;22.43;;;11.90;99.90;;;;;;6274760;28;20490;-63
2021/10/03 03:38:41;;;;;;;29.53;23.57;;;12.00;99.90;;;;;;6274498;28;20474;-63
2021/10/03 03:41:46;;;;;;;32.40;24.70;;;12.00;99.90;;;;;;6274425;28;20470;-64
2021/10/03 03:44:49;;;;;;;32.70;26.30;;;11.90;99.90;;;;;;6274344;28;20466;-63
2021/10/03 03:47:52;;;;;;;27.57;22.33;;;11.90;99.90;;;;;;6274722;28;20481;-63
2021/10/03 03:50:55;;;;;;;32.23;24.83;;;11.90;99.90;;;;;;6274449;28;20474;-63
2021/10/03 03:53:58;;;;;;;28.97;23.20;;;11.80;99.90;;;;;;6274574;28;20479;-63
2021/10/03 03:57:03;;;;;;;33.73;26.83;;;11.80;99.90;;;;;;6274230;28;20477;-63
2021/10/03 04:00:09;;;;;;;37.00;26.10;;;11.80;99.90;;;;;;6275356;28;20470;-63
2021/10/03 04:03:12;;;;;;;36.90;26.97;;;11.80;99.90;;;;;;6279552;28;20465;-63
2021/10/03 04:06:16;;;;;;;39.10;28.53;;;11.80;99.90;;;;;;6278965;28;20466;-63
2021/10/03 04:09:19;;;;;;;36.10;27.40;;;11.80;99.90;;;;;;6278733;28;20860;-63
2021/10/03 04:12:23;;;;;;;34.63;28.13;;;11.80;99.90;;;;;;6278692;28;20516;-63
2021/10/03 04:15:26;;;;;;;38.83;29.30;;;11.70;99.90;;;;;;6278898;28;20482;-63
2021/10/03 04:18:30;;;;;;;36.73;28.20;;;11.70;99.90;;;;;;6278470;28;20478;-63
2021/10/03 04:21:33;;;;;;;34.73;27.50;;;11.80;99.90;;;;;;6278962;28;20483;-63
2021/10/03 04:24:36;;;;;;;35.07;27.53;;;11.80;99.90;;;;;;6278578;28;20870;-63
2021/10/03 04:27:40;;;;;;;38.77;29.20;;;11.80;99.90;;;;;;6279134;28;20441;-63
2021/10/03 04:30:44;;;;;;;39.33;29.40;;;11.90;99.90;;;;;;6278505;28;20516;-63
2021/10/03 04:33:47;;;;;;;33.70;25.47;;;11.80;99.90;;;;;;6278796;28;20811;-63
2021/10/03 04:36:51;;;;;;;34.80;26.10;;;11.80;99.90;;;;;;6278442;28;20470;-63
2021/10/03 04:39:54;;;;;;;32.80;26.40;;;11.90;99.90;;;;;;6278302;28;20849;-63
2021/10/03 04:42:58;;;;;;;34.20;26.20;;;11.80;99.90;;;;;;6278462;28;20478;-63
2021/10/03 04:46:01;;;;;;;35.37;26.77;;;11.80;99.90;;;;;;6277960;28;20476;-63
2021/10/03 04:49:05;;;;;;;35.53;26.87;;;11.70;99.90;;;;;;6268827;28;20828;-63
2021/10/03 04:52:08;;;;;;;34.60;26.27;;;11.70;99.90;;;;;;6277791;28;20783;-63
2021/10/03 04:55:12;;;;;;;35.33;27.67;;;11.70;99.90;;;;;;6278106;28;20792;-63
2021/10/03 04:58:17;;;;;;;38.37;26.73;;;11.60;99.90;;;;;;6278030;28;20484;-62
2021/10/03 05:01:20;;;;;;;35.30;25.23;;;11.60;99.90;;;;;;6277323;28;20489;-62
2021/10/03 05:04:23;;;;;;;33.33;25.93;;;11.60;99.90;;;;;;6278025;28;20480;-62
2021/10/03 05:07:26;;;;;;;36.03;26.70;;;11.60;99.90;;;;;;6277511;28;20977;-62
2021/10/03 05:10:29;;;;;;;37.77;25.80;;;11.60;99.90;;;;;;6277591;28;20481;-62
2021/10/03 05:13:34;;;;;;;36.50;23.90;;;11.70;99.90;;;;;;6277481;28;20481;-62
2021/10/03 05:16:38;;;;;;;34.43;25.67;;;11.70;99.90;;;;;;6277263;28;20856;-62
2021/10/03 05:19:41;;;;;;;36.03;27.37;;;11.70;99.90;;;;;;6277325;28;20481;-62
2021/10/03 05:22:44;;;;;;;32.17;24.80;;;11.80;99.90;;;;;;6277334;28;20485;-62
2021/10/03 05:25:47;;;;;;;33.03;25.47;;;11.90;99.90;;;;;;6277285;28;20796;-62
2021/10/03 05:28:52;;;;;;;32.23;25.87;;;11.90;99.90;;;;;;6277203;28;20477;-62
2021/10/03 05:31:55;;;;;;;33.20;25.63;;;11.90;99.90;;;;;;6277039;28;20474;-62
2021/10/03 05:34:58;;;;;;;29.53;25.17;;;12.00;99.90;;;;;;6277703;28;20504;-62
2021/10/03 05:38:03;;;;;;;31.00;24.73;;;12.00;99.90;;;;;;6276939;28;20772;-62
2021/10/03 05:41:06;;;;;;;30.57;24.77;;;12.10;99.90;;;;;;6277167;28;20480;-62
2021/10/03 05:44:10;;;;;;;32.87;26.23;;;12.10;99.90;;;;;;6277238;28;20470;-62
2021/10/03 05:47:13;;;;;;;28.73;23.90;;;12.20;99.90;;;;;;6276988;28;20839;-62
2021/10/03 05:50:17;;;;;;;26.63;21.77;;;12.30;99.90;;;;;;6276724;28;20466;-62
2021/10/03 05:53:20;;;;;;;26.20;22.47;;;12.30;99.90;;;;;;6277150;28;20477;-62
2021/10/03 05:56:23;;;;;;;22.50;20.00;;;12.40;99.90;;;;;;6276620;28;20474;-62
2021/10/03 05:59:27;;;;;;;24.13;21.63;;;12.50;99.90;;;;;;6276730;28;20478;-62
2021/10/03 06:02:30;;;;;;;24.73;21.17;;;12.60;99.90;;;;;;6276280;28;20473;-63
2021/10/03 06:05:34;;;;;;;25.93;21.50;;;12.80;99.90;;;;;;6276763;28;20458;-63
2021/10/03 06:08:37;;;;;;;25.00;20.70;;;12.90;99.90;;;;;;6276401;28;20470;-63
2021/10/03 06:11:40;;;;;;;25.10;22.07;;;12.90;99.90;;;;;;6276329;28;20485;-63
2021/10/03 06:14:45;;;;;;;29.70;24.23;;;13.00;99.90;;;;;;6276001;28;20846;-63
2021/10/03 06:17:48;;;;;;;26.00;21.00;;;13.00;99.90;;;;;;6275510;28;20470;-63
2021/10/03 06:20:52;;;;;;;27.33;22.27;;;13.10;99.90;;;;;;6276568;28;20482;-63
2021/10/03 06:23:55;;;;;;;25.33;22.73;;;13.10;99.90;;;;;;6275375;28;20477;-63
2021/10/03 06:26:58;;;;;;;25.60;20.10;;;13.20;99.90;;;;;;6276563;28;20521;-63
2021/10/03 06:30:03;;;;;;;26.17;21.23;;;13.30;99.90;;;;;;6275929;28;20485;-63
2021/10/03 06:33:06;;;;;;;22.80;19.43;;;13.30;99.90;;;;;;6275580;28;20470;-62
2021/10/03 06:36:12;;;;;;;24.47;21.60;;;13.40;99.90;;;;;;6275716;28;20485;-63
2021/10/03 06:39:16;;;;;;;22.47;20.03;;;13.50;99.90;;;;;;6276125;28;20474;-63
2021/10/03 06:42:19;;;;;;;25.50;20.90;;;13.50;99.90;;;;;;6275912;28;21000;-62
2021/10/03 06:45:24;;;;;;;25.30;21.87;;;13.60;99.90;;;;;;6277122;28;20501;-62
2021/10/03 06:48:27;;;;;;;22.80;20.03;;;13.80;99.90;;;;;;6275330;28;20446;-62
2021/10/03 06:51:30;;;;;;;22.40;19.97;;;13.80;99.90;;;;;;6275017;28;20470;-63
2021/10/03 06:54:34;;;;;;;23.47;20.97;;;13.90;99.90;;;;;;6270697;28;20807;-63
2021/10/03 06:57:37;;;;;;;21.30;19.00;;;14.00;99.90;;;;;;6274807;28;21124;-63
2021/10/03 07:00:42;;;;;;;23.67;21.10;;;14.10;99.90;;;;;;6275063;28;20847;-63
2021/10/03 07:03:45;;;;;;;24.07;20.80;;;14.20;99.90;;;;;;6275013;28;20520;-63
2021/10/03 07:06:49;;;;;;;21.63;19.40;;;14.30;99.90;;;;;;6275125;28;20474;-63
2021/10/03 07:09:53;;;;;;;22.40;20.10;;;14.40;99.90;;;;;;6275064;28;20458;-63
2021/10/03 07:12:56;;;;;;;22.10;19.80;;;14.60;99.90;;;;;;6275124;28;20474;-63
2021/10/03 07:16:00;;;;;;;21.77;19.50;;;14.90;99.90;;;;;;6274920;28;20781;-63
2021/10/03 07:19:04;;;;;;;21.63;19.33;;;15.20;99.90;;;;;;6274544;28;20984;-64
2021/10/03 07:22:08;;;;;;;21.80;19.47;;;15.70;99.90;;;;;;6274791;28;20821;-61
2021/10/03 07:25:11;;;;;;;20.57;18.47;;;15.90;99.90;;;;;;6274556;28;20965;-63
2021/10/03 07:28:15;;;;;;;20.93;18.97;;;16.00;99.90;;;;;;6275330;28;20470;-62
2021/10/03 07:31:20;;;;;;;22.67;19.70;;;16.20;99.90;;;;;;6274644;28;20504;-62
2021/10/03 07:34:23;;;;;;;18.17;16.47;;;17.50;99.90;;;;;;6276638;28;20559;-63
2021/10/03 07:37:27;;;;;;;19.50;17.60;;;20.70;97.60;;;;;;6279549;28;20846;-63
2021/10/03 07:40:30;;;;;;;20.57;18.47;;;24.00;90.50;;;;;;6279795;28;20301;-63
2021/10/03 07:43:33;;;;;;;21.67;19.67;;;26.60;73.00;;;;;;6279788;28;20683;-63
2021/10/03 07:46:38;;;;;;;20.57;18.67;;;28.50;61.10;;;;;;6279353;28;20697;-63
2021/10/03 07:49:41;;;;;;;20.33;18.33;;;30.00;53.20;;;;;;6279377;28;20231;-63
2021/10/03 07:52:44;;;;;;;20.40;18.50;;;31.20;48.70;;;;;;6279234;28;20272;-63
2021/10/03 07:55:47;;;;;;;19.00;17.40;;;32.10;45.50;;;;;;6279684;28;20226;-64
2021/10/03 07:58:51;;;;;;;18.88;17.27;;;33.10;43.50;;;;;;6279705;28;20234;-63
2021/10/03 08:01:55;;;;;;;18.13;16.55;;;33.90;40.00;;;;;;6274509;28;20702;-63
2021/10/03 08:04:59;;;;;;;18.80;17.10;;;34.70;38.80;;;;;;6279193;28;20361;-63
2021/10/03 08:08:03;;;;;;;19.02;17.50;;;35.40;37.40;;;;;;6278924;28;20222;-64
2021/10/03 08:11:06;;;;;;;17.30;15.90;;;36.20;35.90;;;;;;6278722;28;20234;-64
2021/10/03 08:14:09;;;;;;;18.17;16.73;;;36.10;34.00;;;;;;6278797;28;20223;-64
2021/10/03 08:17:14;;;;;;;16.77;15.35;;;34.40;35.50;;;;;;6278507;28;20253;-63
2021/10/03 08:20:18;;;;;;;16.83;15.52;;;35.10;34.70;;;;;;6278707;28;20296;-63
2021/10/03 08:23:21;;;;;;;17.73;16.33;;;36.20;33.60;;;;;;6278863;28;20226;-63
2021/10/03 08:26:25;;;;;;;18.02;16.52;;;36.90;32.70;;;;;;6278810;28;20226;-64
2021/10/03 08:29:28;;;;;;;16.65;15.35;;;37.60;31.60;;;;;;6278938;28;20227;-63
2021/10/03 08:32:33;;;;;;;17.10;15.68;;;37.50;30.70;;;;;;6278764;28;20230;-63
2021/10/03 08:35:36;;;;;;;16.10;14.90;;;37.60;30.50;;;;;;6278157;28;20227;-63
2021/10/03 08:38:39;;;;;;;17.40;16.00;;;38.90;30.00;;;;;;6277958;28;20250;-63
2021/10/03 08:41:44;;;;;;;17.25;15.85;;;39.60;28.90;;;;;;6278202;28;20235;-64
2021/10/03 08:44:48;;;;;;;15.93;14.73;;;40.70;28.20;;;;;;6278254;28;20241;-64
2021/10/03 08:47:53;;;;;;;16.88;15.57;;;41.40;27.30;;;;;;6277348;28;20227;-64
2021/10/03 08:50:59;;;;;;;17.08;15.68;;;42.10;26.60;;;;;;6278193;28;20234;-64
2021/10/03 08:54:03;;;;;;;16.85;15.52;;;42.50;26.10;;;;;;6278422;28;20240;-64
2021/10/03 08:57:07;;;;;;;16.60;15.38;;;42.90;25.60;;;;;;6277581;28;20239;-64
2021/10/03 09:00:12;;;;;;;17.13;15.70;;;43.80;25.00;;;;;;6277908;28;20244;-65
2021/10/03 09:03:18;;;;;;;15.27;14.15;;;44.00;24.20;;;;;;6273280;28;20557;-64
2021/10/03 09:06:22;;;;;;;13.50;12.52;;;43.20;24.70;;;;;;6278053;28;20222;-64
2021/10/03 09:09:49;;;;;;;15.73;14.50;;;43.20;24.80;;;;;;6277600;28;20254;-64
2021/10/03 09:12:57;;;;;;;14.20;13.20;;;43.70;23.80;;;;;;6277845;28;20243;-64
2021/10/03 09:16:08;;;;;;;13.90;12.88;;;43.30;24.10;;;;;;6277657;28;20230;-64
2021/10/03 09:19:14;;;;;;;13.30;12.35;;;43.40;24.40;;;;;;6277133;28;20234;-64
2021/10/03 09:22:17;;;;;;;11.80;11.00;;;42.60;24.30;;;;;;6277589;28;20230;-65
2021/10/03 09:25:31;;;;;;;12.20;11.20;;;43.40;24.20;;;;;;6277547;28;20239;-65
2021/10/03 09:28:34;;;;;;;13.15;11.98;;;44.50;23.50;;;;;;6277858;28;20236;-65
2021/10/03 09:31:38;;;;;;;13.88;12.88;;;44.40;23.40;;;;;;6276976;28;20256;-65
2021/10/03 09:34:45;;;;;;;12.25;11.35;;;45.70;22.80;;;;;;6277586;28;20231;-64
2021/10/03 09:37:48;;;;;;;11.45;10.55;;;47.00;21.90;;;;;;6277195;28;20229;-64
2021/10/03 09:41:06;;;;;;;10.73;9.93;;;47.80;20.90;;;;;;6277063;28;20242;-65
2021/10/03 09:44:11;;;;;;;11.27;10.48;;;48.40;20.60;;;;;;6276784;28;20709;-65
2021/10/03 09:47:14;;;;;;;11.30;10.60;;;49.00;20.10;;;;;;6276753;28;20234;-65
2021/10/03 09:50:18;;;;;;;10.35;9.65;;;49.70;19.60;;;;;;6276768;28;20241;-65
2021/10/03 09:53:24;;;;;;;10.73;9.93;;;50.00;19.20;;;;;;6276945;28;20227;-65
2021/10/03 09:56:28;;;;;;;10.10;9.45;;;48.90;19.70;;;;;;6276538;28;20235;-65
2021/10/03 09:59:31;;;;;;;9.45;8.85;;;49.90;19.30;;;;;;6275541;28;20237;-66
2021/10/03 10:02:35;;;;;;;10.27;9.57;;;49.80;19.00;;;;;;6272305;28;20244;-65
2021/10/03 10:05:40;;;;;;;9.10;8.50;;;50.20;18.90;;;;;;6276245;28;20290;-65
2021/10/03 10:08:43;;;;;;;10.07;9.40;;;50.80;18.70;;;;;;6276364;28;20657;-64
2021/10/03 10:11:52;;;;;;;9.70;9.10;;;51.60;18.50;;;;;;6276294;28;20245;-65
2021/10/03 10:15:00;;;;;;;9.77;9.18;;;52.10;18.00;;;;;;6276229;28;20249;-65
2021/10/03 10:18:21;;;;;;;10.05;9.18;;;52.10;18.40;;;;;;6275963;28;20239;-65
2021/10/03 10:21:26;;;;;;;10.05;9.35;;;51.70;17.90;;;;;;6276139;28;20234;-64
2021/10/03 10:24:47;;;;;;;8.40;7.90;;;51.60;17.90;;;;;;6275748;28;20553;-65
2021/10/03 10:28:04;;;;;;;8.98;8.48;;;51.80;17.80;;;;;;6274854;28;20231;-64
2021/10/03 10:31:12;;;;;;;9.90;9.05;;;50.60;18.60;;;;;;6275837;28;20245;-65
2021/10/03 10:34:15;;;;;;;8.80;8.20;;;50.80;18.20;;;;;;6275662;28;20560;-65
2021/10/03 10:37:20;;;;;;;8.85;8.27;;;51.10;18.30;;;;;;6275336;28;20678;-65
2021/10/03 10:40:27;;;;;;;9.05;8.43;;;50.10;18.70;;;;;;6275153;28;20576;-65
2021/10/03 10:43:43;;;;;;;8.60;8.10;;;50.20;18.80;;;;;;6275505;28;20233;-65
2021/10/03 10:46:50;;;;;;;8.77;8.20;;;49.00;19.40;;;;;;6275726;28;20253;-65
2021/10/03 10:49:54;;;;;;;8.43;7.80;;;47.70;20.00;;;;;;6275593;28;20235;-64
2021/10/03 10:53:16;;;;;;;9.27;8.45;;;48.20;20.10;;;;;;6275100;28;20288;-65
2021/10/03 10:56:27;;;;;;;8.43;7.82;;;49.70;19.50;;;;;;6275545;28;20233;-64
2021/10/03 10:59:30;;;;;;;8.32;7.82;;;50.30;18.90;;;;;;6275570;28;20236;-64
2021/10/03 11:02:57;;;;;;;7.40;6.90;;;50.20;19.00;;;;;;6275379;28;20580;-63
2021/10/03 11:06:00;;;;;;;7.72;7.22;;;50.80;18.60;;;;;;6247498;28;20230;-63
2021/10/03 11:09:09;;;;;;;7.78;7.10;;;51.50;18.10;;;;;;6275288;28;20226;-65
2021/10/03 11:12:12;;;;;;;7.85;7.25;;;51.80;18.20;;;;;;6274945;28;20231;-65
2021/10/03 11:15:22;;;;;;;6.82;6.43;;;51.80;17.90;;;;;;6276270;28;20226;-65
2021/10/03 11:18:25;;;;;;;7.78;7.28;;;51.80;18.20;;;;;;6276558;28;20242;-65
2021/10/03 11:21:32;;;;;;;7.50;7.10;;;51.90;17.80;;;;;;6275582;28;20223;-65
2021/10/03 11:24:39;;;;;;;7.25;6.85;;;51.40;18.30;;;;;;6275143;28;20206;-65
2021/10/03 11:27:42;;;;;;;7.78;7.28;;;51.70;18.10;;;;;;6275125;28;20195;-64
2021/10/03 11:30:53;;;;;;;7.07;6.57;;;50.00;19.20;;;;;;6274906;28;20225;-65
2021/10/03 11:33:57;;;;;;;6.70;6.20;;;49.70;18.90;;;;;;6275433;28;20230;-65
2021/10/03 11:37:01;;;;;;;5.80;5.40;;;49.50;19.00;;;;;;6275145;28;20233;-64
2021/10/03 11:40:09;;;;;;;6.55;6.05;;;49.80;18.60;;;;;;6274234;28;20540;-64
2021/10/03 11:43:12;;;;;;;5.45;4.68;;;47.30;19.50;;;;;;6275032;28;20243;-65
2021/10/03 11:46:15;;;;;;;5.43;5.03;;;45.50;20.30;;;;;;6274495;28;20841;-65
2021/10/03 11:49:25;;;;;;;5.07;4.70;;;44.90;21.00;;;;;;6274531;28;20539;-65
2021/10/03 11:52:32;;;;;;;4.72;4.43;;;45.20;21.10;;;;;;6274858;28;20238;-63
2021/10/03 11:55:38;;;;;;;4.63;4.32;;;45.60;20.70;;;;;;6274711;28;20243;-64
2021/10/03 11:58:43;;;;;;;4.78;4.47;;;45.30;20.80;;;;;;6274189;28;20223;-64
2021/10/03 12:01:46;;;;;;;4.75;4.43;;;44.30;21.20;;;;;;6274078;28;20572;-64
2021/10/03 12:04:57;;;;;;;4.25;3.95;;;43.90;21.90;;;;;;6274307;28;20229;-64
2021/10/03 12:08:07;;;;;;;4.70;4.40;;;43.00;22.30;;;;;;6269876;28;20231;-64
2021/10/03 12:11:11;;;;;;;4.97;4.40;;;42.70;22.80;;;;;;6273778;28;20823;-64
2021/10/03 12:14:14;;;;;;;4.45;4.15;;;45.20;21.60;;;;;;6274014;28;20242;-64
2021/10/03 12:17:19;;;;;;;5.22;4.70;;;44.80;21.20;;;;;;6273924;28;20239;-64
2021/10/03 12:20:22;;;;;;;4.38;4.07;;;44.00;22.00;;;;;;6274487;28;20230;-64
2021/10/03 12:23:43;;;;;;;4.40;4.00;;;44.20;22.00;;;;;;6279129;28;20584;-64
2021/10/03 12:26:52;;;;;;;5.05;4.65;;;41.70;22.90;;;;;;6278777;28;20232;-64
2021/10/03 12:29:57;;;;;;;4.40;4.00;;;40.20;24.90;;;;;;6278562;28;20242;-64
2021/10/03 12:33:00;;;;;;;5.53;4.40;;;40.90;23.90;;;;;;6278716;28;20236;-65
2021/10/03 12:36:05;;;;;;;4.57;4.18;;;41.20;24.10;;;;;;6278389;28;20238;-65
2021/10/03 12:39:09;;;;;;;9.73;5.15;;;40.80;25.10;;;;;;6278398;28;20225;-65
2021/10/03 12:42:16;;;;;;;4.68;3.85;;;40.50;24.90;;;;;;6278233;28;20578;-64
2021/10/03 12:45:19;;;;;;;4.57;4.18;;;39.40;26.30;;;;;;6279059;28;20227;-64
2021/10/03 12:48:22;;;;;;;4.22;3.92;;;40.60;25.30;;;;;;6278399;28;20227;-65
2021/10/03 12:51:25;;;;;;;4.43;4.03;;;39.90;25.70;;;;;;6278181;28;20671;-64
2021/10/03 12:54:29;;;;;;;4.80;3.83;;;38.70;26.70;;;;;;6278308;28;20238;-64
2021/10/03 12:57:35;;;;;;;5.22;4.75;;;40.80;25.40;;;;;;6278845;28;20219;-64
2021/10/03 13:00:39;;;;;;;3.70;3.47;;;41.00;25.00;;;;;;6278025;28;20230;-64
2021/10/03 13:03:43;;;;;;;4.45;4.05;;;40.50;25.20;;;;;;6278291;28;20264;-64
2021/10/03 13:06:48;;;;;;;9.25;4.97;;;39.00;26.40;;;;;;6278014;28;20245;-64
2021/10/03 13:09:51;;;;;;;4.00;3.60;;;38.80;26.50;;;;;;6277502;28;20647;-64
2021/10/03 13:12:55;;;;;;;4.30;4.00;;;38.60;26.70;;;;;;6277559;28;20238;-64
2021/10/03 13:15:58;;;;;;;3.50;3.05;;;38.40;26.80;;;;;;6277565;28;20737;-64
2021/10/03 13:19:01;;;;;;;4.95;4.43;;;38.50;26.40;;;;;;6277661;28;20235;-64
2021/10/03 13:22:05;;;;;;;4.57;3.83;;;37.40;27.80;;;;;;6277787;28;20235;-65
2021/10/03 13:25:09;;;;;;;4.78;4.38;;;36.30;28.70;;;;;;6277098;28;20667;-65
2021/10/03 13:28:14;;;;;;;4.88;4.45;;;35.10;30.10;;;;;;6277638;28;20231;-65
2021/10/03 13:31:17;;;;;;;5.53;4.32;;;33.40;31.90;;;;;;6277242;28;20235;-63
2021/10/03 13:34:20;;;;;;;7.47;5.22;;;31.40;35.00;;;;;;6276627;28;20234;-64
2021/10/03 13:37:23;;;;;;;5.70;4.63;;;29.30;39.00;;;;;;6277088;28;20258;-64
2021/10/03 13:40:27;;;;;;;4.87;4.37;;;28.20;41.50;;;;;;6277101;28;20242;-63
2021/10/03 13:43:31;;;;;;;4.70;4.30;;;27.10;43.70;;;;;;6277107;28;20322;-63
2021/10/03 13:46:34;;;;;;;4.70;4.30;;;26.30;45.60;;;;;;6277088;28;20231;-63
2021/10/03 13:49:37;;;;;;;4.90;4.50;;;25.90;46.90;;;;;;6276560;28;20296;-63
2021/10/03 13:52:41;;;;;;;4.20;3.90;;;25.80;46.80;;;;;;6277221;28;20238;-64
2021/10/03 13:55:44;;;;;;;8.50;4.50;;;25.60;47.30;;;;;;6278100;28;20284;-64
2021/10/03 13:58:48;;;;;;;4.80;4.30;;;25.40;47.60;;;;;;6279514;28;20238;-65
2021/10/03 14:01:51;;;;;;;4.83;4.43;;;25.20;48.90;;;;;;6277095;28;20243;-63
2021/10/03 14:04:55;;;;;;;4.50;4.10;;;24.90;50.20;;;;;;6276442;28;20687;-64
2021/10/03 14:07:58;;;;;;;4.50;4.10;;;24.80;50.50;;;;;;6276337;28;20675;-63
2021/10/03 14:11:01;;;;;;;5.37;4.97;;;24.80;51.20;;;;;;6276405;28;20231;-64
2021/10/03 14:14:06;;;;;;;5.30;4.80;;;24.70;51.50;;;;;;6275830;28;20231;-64
2021/10/03 14:17:10;;;;;;;7.57;4.63;;;24.80;51.20;;;;;;6262765;28;20255;-64
2021/10/03 14:20:13;;;;;;;7.37;4.27;;;24.70;51.40;;;;;;6276402;28;20228;-64
2021/10/03 14:23:16;;;;;;;5.00;4.60;;;24.50;51.50;;;;;;6275859;28;20242;-64
2021/10/03 14:26:19;;;;;;;4.40;4.07;;;24.40;52.20;;;;;;6275929;28;20231;-64
2021/10/03 14:29:24;;;;;;;5.10;4.60;;;24.20;53.00;;;;;;6276126;28;20239;-64
2021/10/03 14:32:27;;;;;;;5.50;4.30;;;24.20;53.00;;;;;;6275852;28;20243;-64
2021/10/03 14:35:30;;;;;;;5.80;4.00;;;24.10;53.20;;;;;;6276020;28;20231;-64
2021/10/03 14:38:33;;;;;;;4.20;3.80;;;24.10;53.70;;;;;;6275438;28;20246;-64
2021/10/03 14:41:36;;;;;;;4.90;4.00;;;24.00;53.80;;;;;;6275810;28;20232;-64
2021/10/03 14:44:41;;;;;;;4.87;4.47;;;24.00;54.40;;;;;;6275240;28;20231;-64
2021/10/03 14:47:44;;;;;;;4.80;4.40;;;24.00;54.30;;;;;;6275255;28;20246;-64
2021/10/03 14:50:47;;;;;;;4.23;3.83;;;23.90;54.90;;;;;;6275174;28;20292;-64
2021/10/03 14:53:50;;;;;;;4.70;4.37;;;23.80;55.10;;;;;;6275822;28;20231;-64
2021/10/03 14:56:55;;;;;;;4.50;3.87;;;23.70;55.20;;;;;;6275433;28;20224;-63
2021/10/03 14:59:59;;;;;;;4.43;4.03;;;23.70;55.80;;;;;;6275517;28;20223;-63
2021/10/03 15:03:03;;;;;;;4.70;3.90;;;23.70;56.40;;;;;;6275242;28;20242;-63
2021/10/03 15:06:06;;;;;;;4.07;3.67;;;23.60;56.80;;;;;;6274506;28;20239;-64
2021/10/03 15:09:09;;;;;;;5.60;4.60;;;23.50;57.30;;;;;;6274160;28;20235;-64
2021/10/03 15:12:12;;;;;;;4.77;3.87;;;23.50;57.50;;;;;;6273465;28;20231;-64
2021/10/03 15:15:17;;;;;;;5.23;4.40;;;23.40;57.60;;;;;;6273734;28;20223;-64
2021/10/03 15:18:21;;;;;;;4.93;4.10;;;23.40;58.10;;;;;;6267648;28;20322;-65
2021/10/03 15:21:24;;;;;;;4.70;4.30;;;23.20;58.70;;;;;;6273343;28;20678;-64
2021/10/03 15:24:27;;;;;;;3.80;3.50;;;23.10;59.10;;;;;;6274139;28;20586;-64
2021/10/03 15:27:30;;;;;;;5.70;4.53;;;23.10;59.40;;;;;;6273337;28;20242;-64
2021/10/03 15:30:37;;;;;;;4.30;3.90;;;23.00;59.80;;;;;;6274506;28;20231;-65
2021/10/03 15:33:40;;;;;;;5.67;4.47;;;23.00;60.30;;;;;;6274035;28;20224;-65
2021/10/03 15:36:44;;;;;;;5.13;3.80;;;23.00;60.90;;;;;;6274616;28;20600;-65
2021/10/03 15:39:47;;;;;;;4.80;4.40;;;22.90;60.80;;;;;;6274314;28;20237;-65
2021/10/03 15:42:51;;;;;;;6.17;4.40;;;22.80;61.10;;;;;;6272664;28;20273;-65